createdAt,value
2022-09-06T00:00:59.170Z,99.99
2022-09-06T00:01:59.170Z,99.99
2022-09-06T00:02:59.414Z,99.99
2022-09-06T00:03:59.250Z,99.99
2022-09-06T00:04:59.176Z,99.99
2022-09-06T00:06:01.948Z,99.99
2022-09-06T00:06:59.180Z,99.99
2022-09-06T00:07:59.185Z,99.99
2022-09-06T00:08:59.181Z,99.99
2022-09-06T00:09:59.185Z,99.99
2022-09-06T00:11:03.402Z,99.99
2022-09-06T00:11:59.185Z,99.99
2022-09-06T00:12:59.185Z,99.99
2022-09-06T00:13:59.191Z,99.99
2022-09-06T00:14:59.192Z,99.99
2022-09-06T00:15:59.332Z,99.99
2022-09-06T00:17:02.066Z,99.99
2022-09-06T00:17:59.196Z,99.99
2022-09-06T00:18:59.351Z,99.99
2022-09-06T00:19:59.202Z,99.99
2022-09-06T00:20:59.196Z,99.99
2022-09-06T00:21:59.202Z,99.99
2022-09-06T00:22:59.231Z,99.99
2022-09-06T00:23:59.205Z,99.99
2022-09-06T00:24:59.210Z,99.99
2022-09-06T00:25:59.209Z,99.99
2022-09-06T00:26:59.210Z,99.99
2022-09-06T00:28:02.327Z,99.99
2022-09-06T00:28:59.219Z,99.99
2022-09-06T00:29:59.226Z,99.99
2022-09-06T00:30:59.438Z,99.99
2022-09-06T00:31:59.225Z,99.99
2022-09-06T00:32:59.223Z,99.99
2022-09-06T00:33:59.225Z,99.99
2022-09-06T00:34:59.230Z,99.99
2022-09-06T00:35:59.225Z,99.99
2022-09-06T00:36:59.235Z,99.99
2022-09-06T00:37:59.232Z,99.99
2022-09-06T00:38:59.230Z,99.99
2022-09-06T00:39:59.434Z,99.99
2022-09-06T00:40:59.245Z,99.99
2022-09-06T00:41:59.250Z,99.99
2022-09-06T00:42:59.248Z,99.99
2022-09-06T00:43:59.331Z,99.99
2022-09-06T00:44:59.245Z,99.99
2022-09-06T00:45:59.462Z,99.99
2022-09-06T00:46:59.251Z,99.99
2022-09-06T00:47:59.268Z,99.99
2022-09-06T00:48:59.259Z,99.99
2022-09-06T00:49:59.256Z,99.99
2022-09-06T00:50:59.254Z,99.99
2022-09-06T00:51:59.261Z,99.99
2022-09-06T00:52:59.257Z,99.99
2022-09-06T00:53:59.261Z,99.99
2022-09-06T00:54:59.415Z,99.99
2022-09-06T00:55:59.351Z,99.99
2022-09-06T00:56:59.267Z,99.99
2022-09-06T00:57:59.267Z,99.99
2022-09-06T00:58:59.274Z,99.99
2022-09-06T00:59:59.290Z,99.99
2022-09-06T01:00:59.308Z,99.99
2022-09-06T01:01:59.532Z,99.99
2022-09-06T01:02:59.275Z,99.99
2022-09-06T01:03:59.279Z,99.99
2022-09-06T01:04:59.282Z,99.99
2022-09-06T01:06:00.619Z,99.99
2022-09-06T01:06:59.285Z,99.99
2022-09-06T01:07:59.290Z,99.99
2022-09-06T01:08:59.288Z,99.99
2022-09-06T01:09:59.291Z,99.99
2022-09-06T01:10:59.312Z,99.99
2022-09-06T01:11:59.292Z,99.99
2022-09-06T01:12:59.297Z,99.99
2022-09-06T01:13:59.291Z,99.99
2022-09-06T01:14:59.301Z,99.99
2022-09-06T01:15:59.542Z,99.99
2022-09-06T01:17:02.362Z,99.99
2022-09-06T01:17:59.309Z,99.99
2022-09-06T01:18:59.311Z,99.99
2022-09-06T01:19:59.307Z,99.99
2022-09-06T01:20:59.308Z,99.99
2022-09-06T01:21:59.307Z,99.99
2022-09-06T01:22:59.325Z,99.99
2022-09-06T01:23:59.314Z,99.99
2022-09-06T01:24:59.320Z,99.99
2022-09-06T01:25:59.320Z,99.99
2022-09-06T01:26:59.318Z,99.99
2022-09-06T01:28:02.332Z,99.99
2022-09-06T01:28:59.317Z,99.99
2022-09-06T01:29:59.513Z,99.99
2022-09-06T01:30:59.437Z,99.99
2022-09-06T01:31:59.326Z,99.99
2022-09-06T01:32:59.330Z,99.99
2022-09-06T01:33:59.334Z,99.99
2022-09-06T01:34:59.341Z,99.99
2022-09-06T01:35:59.340Z,99.99
2022-09-06T01:37:12.168Z,99.99
2022-09-06T01:37:59.341Z,99.99
2022-09-06T01:39:02.368Z,99.99
2022-09-06T01:39:59.517Z,99.99
2022-09-06T01:40:59.339Z,99.99
2022-09-06T01:41:59.343Z,99.99
2022-09-06T01:42:59.349Z,99.99
2022-09-06T01:43:59.346Z,99.99
2022-09-06T01:44:59.356Z,99.99
2022-09-06T01:45:59.556Z,99.99
2022-09-06T01:46:59.353Z,99.99
2022-09-06T01:47:59.360Z,99.99
2022-09-06T01:48:59.358Z,99.99
2022-09-06T01:50:00.090Z,99.99
2022-09-06T01:50:59.371Z,99.99
2022-09-06T01:51:59.378Z,99.99
2022-09-06T01:52:59.399Z,99.99
2022-09-06T01:53:59.374Z,99.99
2022-09-06T01:54:59.373Z,99.99
2022-09-06T01:55:59.369Z,99.99
2022-09-06T01:56:59.377Z,99.99
2022-09-06T01:57:59.382Z,99.99
2022-09-06T01:58:59.392Z,99.99
2022-09-06T01:59:59.381Z,99.99
2022-09-06T02:00:59.393Z,99.99
2022-09-06T02:01:59.477Z,99.99
2022-09-06T02:02:59.495Z,99.99
2022-09-06T02:03:59.381Z,99.99
2022-09-06T02:04:59.390Z,99.99
2022-09-06T02:05:59.400Z,99.99
2022-09-06T02:06:59.388Z,99.99
2022-09-06T02:07:59.406Z,99.99
2022-09-06T02:08:59.407Z,99.99
2022-09-06T02:09:59.393Z,99.99
2022-09-06T02:10:59.394Z,99.99
2022-09-06T02:11:59.400Z,99.99
2022-09-06T02:12:59.401Z,99.99
2022-09-06T02:13:59.434Z,99.99
2022-09-06T02:14:59.420Z,99.99
2022-09-06T02:15:59.425Z,99.99
2022-09-06T02:16:59.637Z,99.99
2022-09-06T02:17:59.425Z,99.99
2022-09-06T02:18:59.432Z,99.99
2022-09-06T02:19:59.441Z,99.99
2022-09-06T02:20:59.411Z,99.99
2022-09-06T02:22:02.280Z,99.99
2022-09-06T02:22:59.423Z,99.99
2022-09-06T02:23:59.414Z,99.99
2022-09-06T02:24:59.419Z,99.99
2022-09-06T02:25:59.418Z,99.99
2022-09-06T02:26:59.423Z,99.99
2022-09-06T02:27:59.425Z,99.99
2022-09-06T02:28:59.425Z,99.99
2022-09-06T02:29:59.425Z,99.99
2022-09-06T02:30:59.591Z,99.99
2022-09-06T02:31:59.435Z,99.99
2022-09-06T02:33:02.243Z,99.99
2022-09-06T02:33:59.440Z,99.99
2022-09-06T02:34:59.440Z,99.99
2022-09-06T02:35:59.457Z,99.99
2022-09-06T02:36:59.444Z,99.99
2022-09-06T02:37:59.446Z,99.99
2022-09-06T02:38:59.443Z,99.99
2022-09-06T02:39:59.584Z,99.99
2022-09-06T02:40:59.451Z,99.99
2022-09-06T02:41:59.559Z,99.99
2022-09-06T02:42:59.457Z,99.99
2022-09-06T02:44:02.457Z,99.99
2022-09-06T02:44:59.466Z,99.99
2022-09-06T02:45:59.596Z,99.99
2022-09-06T02:46:59.766Z,99.99
2022-09-06T02:47:59.455Z,99.99
2022-09-06T02:48:59.471Z,99.99
2022-09-06T02:49:59.471Z,99.99
2022-09-06T02:50:59.465Z,99.99
2022-09-06T02:51:59.466Z,99.99
2022-09-06T02:52:59.479Z,99.99
2022-09-06T02:53:59.474Z,99.99
2022-09-06T02:55:02.475Z,99.99
2022-09-06T02:55:59.483Z,99.99
2022-09-06T02:56:59.480Z,99.99
2022-09-06T02:57:59.476Z,99.99
2022-09-06T02:58:59.485Z,99.99
2022-09-06T02:59:59.489Z,99.99
2022-09-06T03:00:59.633Z,99.99
2022-09-06T03:01:59.604Z,99.99
2022-09-06T03:02:59.486Z,99.99
2022-09-06T03:03:59.491Z,99.99
2022-09-06T03:04:59.493Z,99.99
2022-09-06T03:06:02.369Z,99.99
2022-09-06T03:06:59.499Z,99.99
2022-09-06T03:07:59.498Z,99.99
2022-09-06T03:08:59.498Z,99.99
2022-09-06T03:09:59.508Z,99.99
2022-09-06T03:10:59.502Z,99.99
2022-09-06T03:11:59.504Z,99.99
2022-09-06T03:12:59.502Z,99.99
2022-09-06T03:13:59.595Z,99.99
2022-09-06T03:14:59.511Z,99.99
2022-09-06T03:15:59.544Z,99.99
2022-09-06T03:16:59.613Z,99.99
2022-09-06T03:17:59.530Z,99.99
2022-09-06T03:18:59.513Z,99.99
2022-09-06T03:19:59.518Z,99.99
2022-09-06T03:20:59.522Z,99.99
2022-09-06T03:21:59.526Z,99.99
2022-09-06T03:22:59.519Z,99.99
2022-09-06T03:23:59.524Z,99.99
2022-09-06T03:24:59.532Z,99.99
2022-09-06T03:25:59.551Z,99.99
2022-09-06T03:26:59.534Z,99.99
2022-09-06T03:27:59.538Z,99.99
2022-09-06T03:28:59.528Z,99.99
2022-09-06T03:29:59.531Z,99.99
2022-09-06T03:30:59.705Z,99.99
2022-09-06T03:31:59.547Z,99.99
2022-09-06T03:33:05.226Z,99.99
2022-09-06T03:33:59.541Z,99.99
2022-09-06T03:34:59.550Z,99.99
2022-09-06T03:35:59.542Z,99.99
2022-09-06T03:36:59.563Z,99.99
2022-09-06T03:37:59.580Z,99.99
2022-09-06T03:38:59.550Z,99.99
2022-09-06T03:39:59.689Z,99.99
2022-09-06T03:40:59.556Z,99.99
2022-09-06T03:41:59.575Z,99.99
2022-09-06T03:42:59.557Z,99.99
2022-09-06T03:44:02.600Z,99.99
2022-09-06T03:44:59.558Z,99.99
2022-09-06T03:45:59.848Z,99.99
2022-09-06T03:46:59.584Z,99.99
2022-09-06T03:47:59.569Z,99.99
2022-09-06T03:48:59.573Z,99.99
2022-09-06T03:49:59.573Z,99.99
2022-09-06T03:50:59.571Z,99.99
2022-09-06T03:51:59.594Z,99.99
2022-09-06T03:52:59.572Z,99.99
2022-09-06T03:53:59.579Z,99.99
2022-09-06T03:55:02.634Z,99.99
2022-09-06T03:55:59.585Z,99.99
2022-09-06T03:56:59.630Z,99.99
2022-09-06T03:57:59.586Z,99.99
2022-09-06T03:58:59.590Z,99.99
2022-09-06T03:59:59.596Z,99.99
2022-09-06T04:00:59.670Z,99.99
2022-09-06T04:01:59.722Z,99.99
2022-09-06T04:03:03.850Z,99.99
2022-09-06T04:03:59.597Z,99.99
2022-09-06T04:04:59.593Z,99.99
2022-09-06T04:06:02.404Z,99.99
2022-09-06T04:06:59.620Z,99.99
2022-09-06T04:07:59.605Z,99.99
2022-09-06T04:08:59.614Z,99.99
2022-09-06T04:09:59.603Z,99.99
2022-09-06T04:10:59.613Z,99.99
2022-09-06T04:11:59.629Z,99.99
2022-09-06T04:12:59.624Z,99.99
2022-09-06T04:13:59.611Z,99.99
2022-09-06T04:14:59.638Z,99.99
2022-09-06T04:15:59.616Z,99.99
2022-09-06T04:17:03.018Z,99.99
2022-09-06T04:17:59.619Z,99.99
2022-09-06T04:18:59.760Z,99.99
2022-09-06T04:19:59.627Z,99.99
2022-09-06T04:20:59.627Z,99.99
2022-09-06T04:21:59.629Z,99.99
2022-09-06T04:22:59.630Z,99.99
2022-09-06T04:23:59.626Z,99.99
2022-09-06T04:24:59.634Z,99.99
2022-09-06T04:25:59.650Z,99.99
2022-09-06T04:26:59.636Z,99.99
2022-09-06T04:27:59.633Z,99.99
2022-09-06T04:28:59.654Z,99.99
2022-09-06T04:29:59.646Z,99.99
2022-09-06T04:31:05.290Z,99.99
2022-09-06T04:31:59.790Z,99.99
2022-09-06T04:32:59.667Z,99.99
2022-09-06T04:33:59.644Z,99.99
2022-09-06T04:34:59.650Z,99.99
2022-09-06T04:35:59.659Z,99.99
2022-09-06T04:36:59.656Z,99.99
2022-09-06T04:37:59.725Z,99.99
2022-09-06T04:38:59.668Z,99.99
2022-09-06T04:39:59.567Z,99.99
2022-09-06T04:40:59.655Z,99.99
2022-09-06T04:41:59.659Z,99.99
2022-09-06T04:42:59.658Z,99.99
2022-09-06T04:43:59.686Z,99.99
2022-09-06T04:44:59.706Z,99.99
2022-09-06T04:45:59.754Z,99.99
2022-09-06T04:46:59.679Z,99.99
2022-09-06T04:47:59.675Z,99.99
2022-09-06T04:49:00.350Z,99.99
2022-09-06T04:49:59.679Z,99.99
2022-09-06T04:50:59.691Z,99.99
2022-09-06T04:51:59.687Z,99.99
2022-09-06T04:52:59.685Z,99.99
2022-09-06T04:53:59.698Z,99.99
2022-09-06T04:54:59.679Z,99.99
2022-09-06T04:55:59.689Z,99.99
2022-09-06T04:56:59.687Z,99.99
2022-09-06T04:57:59.688Z,99.99
2022-09-06T04:58:59.683Z,99.99
2022-09-06T05:00:02.462Z,99.99
2022-09-06T05:00:59.808Z,99.99
2022-09-06T05:01:59.901Z,99.99
2022-09-06T05:02:59.705Z,99.99
2022-09-06T05:03:59.703Z,99.99
2022-09-06T05:04:59.723Z,99.99
2022-09-06T05:05:59.700Z,99.99
2022-09-06T05:06:59.722Z,99.99
2022-09-06T05:07:59.739Z,99.99
2022-09-06T05:08:59.715Z,99.99
2022-09-06T05:09:59.709Z,99.99
2022-09-06T05:11:02.604Z,99.99
2022-09-06T05:11:59.714Z,99.99
2022-09-06T05:12:59.717Z,99.99
2022-09-06T05:13:59.719Z,99.99
2022-09-06T05:14:59.730Z,99.99
2022-09-06T05:15:59.759Z,99.99
2022-09-06T05:16:59.834Z,99.99
2022-09-06T05:17:59.726Z,99.99
2022-09-06T05:18:59.722Z,99.99
2022-09-06T05:19:59.731Z,99.99
2022-09-06T05:20:59.731Z,99.99
2022-09-06T05:22:02.569Z,99.99
2022-09-06T05:22:59.732Z,99.99
2022-09-06T05:24:01.089Z,99.99
2022-09-06T05:24:59.758Z,99.99
2022-09-06T05:25:59.757Z,99.99
2022-09-06T05:26:59.755Z,99.99
2022-09-06T05:27:59.778Z,99.99
2022-09-06T05:28:59.783Z,99.99
2022-09-06T05:29:59.751Z,99.99
2022-09-06T05:30:59.755Z,99.99
2022-09-06T05:31:59.873Z,99.99
2022-09-06T05:33:02.761Z,99.99
2022-09-06T05:33:59.795Z,99.99
2022-09-06T05:34:59.750Z,99.99
2022-09-06T05:35:59.754Z,99.99
2022-09-06T05:36:59.751Z,99.99
2022-09-06T05:37:59.784Z,99.99
2022-09-06T05:38:59.756Z,99.99
2022-09-06T05:39:59.905Z,99.99
2022-09-06T05:40:59.771Z,99.99
2022-09-06T05:41:59.763Z,99.99
2022-09-06T05:42:59.802Z,99.99
2022-09-06T05:43:59.768Z,99.99
2022-09-06T05:44:59.769Z,99.99
2022-09-06T05:45:59.913Z,99.99
2022-09-06T05:46:59.776Z,99.99
2022-09-06T05:47:59.795Z,99.99
2022-09-06T05:48:59.778Z,99.99
2022-09-06T05:49:59.783Z,99.99
2022-09-06T05:50:59.785Z,99.99
2022-09-06T05:51:59.791Z,99.99
2022-09-06T05:52:59.805Z,99.99
2022-09-06T05:53:59.803Z,99.99
2022-09-06T05:54:59.793Z,99.99
2022-09-06T05:55:59.788Z,99.99
2022-09-06T05:56:59.808Z,99.99
2022-09-06T05:57:59.838Z,99.99
2022-09-06T05:58:59.796Z,99.99
2022-09-06T06:00:02.716Z,99.99
2022-09-06T06:00:59.868Z,99.99
2022-09-06T06:02:00.516Z,99.99
2022-09-06T06:02:59.890Z,99.99
2022-09-06T06:03:59.826Z,99.99
2022-09-06T06:04:59.819Z,99.99
2022-09-06T06:05:59.846Z,99.99
2022-09-06T06:06:59.813Z,99.99
2022-09-06T06:07:59.834Z,99.99
2022-09-06T06:08:59.850Z,99.99
2022-09-06T06:09:59.828Z,99.99
2022-09-06T06:11:02.981Z,99.99
2022-09-06T06:11:59.826Z,99.99
2022-09-06T06:12:59.838Z,99.99
2022-09-06T06:13:59.834Z,99.99
2022-09-06T06:14:59.826Z,99.99
2022-09-06T06:15:59.833Z,99.99
2022-09-06T06:16:59.909Z,99.99
2022-09-06T06:17:59.847Z,99.99
2022-09-06T06:18:59.842Z,99.99
2022-09-06T06:19:59.835Z,99.99
2022-09-06T06:20:59.834Z,99.99
2022-09-06T06:22:02.605Z,99.99
2022-09-06T06:22:59.874Z,99.99
2022-09-06T06:23:59.841Z,99.99
2022-09-06T06:24:59.854Z,99.99
2022-09-06T06:25:59.697Z,99.99
2022-09-06T06:26:59.846Z,99.99
2022-09-06T06:27:59.711Z,99.99
2022-09-06T06:28:59.853Z,99.99
2022-09-06T06:29:59.849Z,99.99
2022-09-06T06:30:59.853Z,99.99
2022-09-06T06:31:59.992Z,99.99
2022-09-06T06:33:02.647Z,99.99
2022-09-06T06:33:59.856Z,99.99
2022-09-06T06:34:59.875Z,99.99
2022-09-06T06:35:59.860Z,99.99
2022-09-06T06:36:59.868Z,99.99
2022-09-06T06:37:59.873Z,99.99
2022-09-06T06:38:59.865Z,99.99
2022-09-06T06:39:59.982Z,99.99
2022-09-06T06:41:06.918Z,99.99
2022-09-06T06:41:59.876Z,99.99
2022-09-06T06:42:59.875Z,99.99
2022-09-06T06:44:03.073Z,99.99
2022-09-06T06:44:59.882Z,99.99
2022-09-06T06:46:00.014Z,99.99
2022-09-06T06:46:59.886Z,99.99
2022-09-06T06:47:59.883Z,99.99
2022-09-06T06:48:59.891Z,99.99
2022-09-06T06:49:59.886Z,99.99
2022-09-06T06:50:59.890Z,99.99
2022-09-06T06:51:59.893Z,99.99
2022-09-06T06:52:59.917Z,99.99
2022-09-06T06:53:59.897Z,99.99
2022-09-06T06:54:59.900Z,99.99
2022-09-06T06:55:59.897Z,99.99
2022-09-06T06:56:59.899Z,99.99
2022-09-06T06:58:02.674Z,99.99
2022-09-06T06:58:59.917Z,99.99
2022-09-06T06:59:59.907Z,99.99
2022-09-06T07:01:00.114Z,99.99
2022-09-06T07:02:00.180Z,99.99
2022-09-06T07:02:59.917Z,99.99
2022-09-06T07:03:59.916Z,99.99
2022-09-06T07:05:00.203Z,99.99
2022-09-06T07:06:15.895Z,99.99
2022-09-06T07:07:30.035Z,99.99
2022-09-06T07:08:30.097Z,99.99
2022-09-06T07:10:42.212Z,99.99
2022-09-06T07:11:42.167Z,99.99
2022-09-06T07:12:42.169Z,99.99
2022-09-06T07:13:42.178Z,99.99
2022-09-06T07:14:42.166Z,99.99
2022-09-06T07:15:42.173Z,99.99
2022-09-06T07:16:42.310Z,99.99
2022-09-06T07:17:42.177Z,99.99
2022-09-06T07:18:42.249Z,99.99
2022-09-06T07:21:51.480Z,99.99
2022-09-06T07:22:51.397Z,99.99
2022-09-06T07:24:07.101Z,99.99
2022-09-06T07:24:51.397Z,99.99
2022-09-06T07:25:51.411Z,99.99
2022-09-06T07:28:08.088Z,99.99
2022-09-06T07:29:02.999Z,99.99
2022-09-06T07:30:03.141Z,99.99
2022-09-06T07:31:03.476Z,99.99
2022-09-06T07:32:12.656Z,99.99
2022-09-06T07:33:12.379Z,99.99
2022-09-06T07:34:12.537Z,99.99
2022-09-06T07:35:12.522Z,99.99
2022-09-06T07:36:12.520Z,99.99
2022-09-06T07:37:12.524Z,99.99
2022-09-06T07:38:12.524Z,99.99
2022-09-06T07:39:15.934Z,99.99
2022-09-06T07:40:12.755Z,99.99
2022-09-06T07:41:12.519Z,99.99
2022-09-06T07:42:12.535Z,99.99
2022-09-06T07:43:12.528Z,99.99
2022-09-06T07:44:12.531Z,99.99
2022-09-06T07:45:12.531Z,99.99
2022-09-06T07:46:12.537Z,99.99
2022-09-06T07:47:58.098Z,99.99
2022-09-06T07:48:12.541Z,99.99
2022-09-06T07:49:12.547Z,99.99
2022-09-06T07:51:12.545Z,99.99
2022-09-06T07:53:37.490Z,99.99
2022-09-06T07:54:36.810Z,99.99
2022-09-06T07:55:36.801Z,99.99
2022-09-06T07:56:36.800Z,99.99
2022-09-06T07:57:36.797Z,99.99
2022-09-06T07:58:36.802Z,99.99
2022-09-06T07:59:40.021Z,99.99
2022-09-06T08:00:36.963Z,99.99
2022-09-06T08:01:36.828Z,99.99
2022-09-06T08:02:36.878Z,99.99
2022-09-06T08:03:36.835Z,99.99
2022-09-06T08:04:36.839Z,99.99
2022-09-06T08:06:10.292Z,99.99
2022-09-06T08:07:48.312Z,99.99
2022-09-06T08:09:02.697Z,99.99
2022-09-06T08:10:02.369Z,99.99
2022-09-06T08:11:05.841Z,99.99
2022-09-06T08:12:02.349Z,99.99
2022-09-06T08:13:02.350Z,99.99
2022-09-06T08:14:02.391Z,99.99
2022-09-06T08:15:02.385Z,99.99
2022-09-06T08:16:02.614Z,99.99
2022-09-06T08:17:02.373Z,99.99
2022-09-06T08:18:02.371Z,99.99
2022-09-06T08:19:02.358Z,99.99
2022-09-06T08:20:02.422Z,99.99
2022-09-06T08:21:02.362Z,99.99
2022-09-06T08:22:05.400Z,99.99
2022-09-06T08:23:02.367Z,99.99
2022-09-06T08:24:02.399Z,99.99
2022-09-06T08:25:02.406Z,99.99
2022-09-06T08:26:02.395Z,99.99
2022-09-06T08:27:02.581Z,99.99
2022-09-06T08:28:02.380Z,99.99
2022-09-06T08:29:02.394Z,99.99
2022-09-06T08:30:02.439Z,99.99
2022-09-06T08:31:02.398Z,99.99
2022-09-06T08:32:02.702Z,99.99
2022-09-06T08:33:05.468Z,99.99
2022-09-06T08:34:02.399Z,99.99
2022-09-06T08:35:02.427Z,99.99
2022-09-06T08:36:02.410Z,99.99
2022-09-06T08:37:02.413Z,99.99
2022-09-06T08:38:02.412Z,99.99
2022-09-06T08:39:02.402Z,99.99
2022-09-06T08:40:02.748Z,99.99
2022-09-06T08:41:02.420Z,99.99
2022-09-06T08:42:02.404Z,99.99
2022-09-06T08:43:02.402Z,99.99
2022-09-06T08:45:11.929Z,99.99
2022-09-06T08:46:11.989Z,99.99
2022-09-06T08:47:11.890Z,99.99
2022-09-06T08:48:11.891Z,99.99
2022-09-06T08:49:11.884Z,99.99
2022-09-06T08:50:11.896Z,99.99
2022-09-06T08:51:11.882Z,99.99
2022-09-06T08:52:11.886Z,99.99
2022-09-06T08:53:20.376Z,99.99
2022-09-06T08:54:11.893Z,99.99
2022-09-06T08:55:11.910Z,99.99
2022-09-06T08:56:11.896Z,99.99
2022-09-06T08:57:11.947Z,99.99
2022-09-06T08:58:11.903Z,99.99
2022-09-06T08:59:11.897Z,99.99
2022-09-06T09:00:13.405Z,99.99
2022-09-06T09:01:12.104Z,99.99
2022-09-06T09:02:12.280Z,99.99
2022-09-06T09:03:18.192Z,99.99
2022-09-06T09:04:12.015Z,99.99
2022-09-06T09:05:11.964Z,99.99
2022-09-06T09:06:11.909Z,99.99
2022-09-06T09:07:11.911Z,99.99
2022-09-06T09:08:11.913Z,99.99
2022-09-06T09:09:11.921Z,99.99
2022-09-06T09:10:11.965Z,99.99
2022-09-06T09:11:11.935Z,99.99
2022-09-06T09:12:11.923Z,99.99
2022-09-06T09:13:11.924Z,99.99
2022-09-06T09:14:11.924Z,99.99
2022-09-06T09:15:11.953Z,99.99
2022-09-06T09:16:12.048Z,99.75
2022-09-06T09:17:11.929Z,98.97
2022-09-06T09:18:11.933Z,98.44
2022-09-06T09:19:11.942Z,97.61
2022-09-06T09:20:11.956Z,97.23
2022-09-06T09:21:11.944Z,96.98
2022-09-06T09:22:14.712Z,96.55
2022-09-06T09:23:11.944Z,96.5
2022-09-06T09:24:11.953Z,96.11
2022-09-06T09:25:11.972Z,94.99
2022-09-06T09:26:11.953Z,94.9
2022-09-06T09:27:11.956Z,93.97
2022-09-06T09:28:11.981Z,93.38
2022-09-06T09:29:11.951Z,93.29
2022-09-06T09:30:49.696Z,93.38
2022-09-06T09:31:12.035Z,93.77
2022-09-06T09:32:11.955Z,93.77
2022-09-06T09:33:14.986Z,93.87
2022-09-06T09:34:11.974Z,92.94
2022-09-06T09:35:11.987Z,94.02
2022-09-06T09:36:11.967Z,92.7
2022-09-06T09:38:14.505Z,91.28
2022-09-06T09:39:11.996Z,91.24
2022-09-06T09:40:11.969Z,91.24
2022-09-06T09:41:11.998Z,91.14
2022-09-06T09:42:11.982Z,91.34
2022-09-06T09:43:11.984Z,90.66
2022-09-06T09:44:15.069Z,90.31
2022-09-06T09:45:12.015Z,90.7
2022-09-06T09:46:12.104Z,90.8
2022-09-06T09:47:12.003Z,90.85
2022-09-06T09:48:11.996Z,90.31
2022-09-06T09:49:11.995Z,90.12
2022-09-06T09:50:12.012Z,90.36
2022-09-06T09:51:15.481Z,90.06
2022-09-06T09:52:11.990Z,90.16
2022-09-06T09:53:12.018Z,89.77
2022-09-06T09:54:12.004Z,89.72
2022-09-06T09:55:15.057Z,89.29
2022-09-06T09:56:12.008Z,89.38
2022-09-06T09:57:14.362Z,88.84
2022-09-06T09:58:12.005Z,88.26
2022-09-06T09:59:12.011Z,87.87
2022-09-06T10:00:12.018Z,88.01
2022-09-06T10:01:12.155Z,87.77
2022-09-06T10:02:12.022Z,88.1
2022-09-06T10:03:12.100Z,88.3
2022-09-06T10:05:12.025Z,86.65
2022-09-06T10:07:17.731Z,86.44
2022-09-06T10:08:17.690Z,86.63
2022-09-06T10:09:21.518Z,86.94
2022-09-06T10:10:17.708Z,87.29
2022-09-06T10:11:17.695Z,86.6
2022-09-06T10:12:20.773Z,86.65
2022-09-06T10:13:17.696Z,86.36
2022-09-06T10:14:17.695Z,87.09
2022-09-06T10:15:17.722Z,86.85
2022-09-06T10:16:17.787Z,87.53
2022-09-06T10:17:18.001Z,86.7
2022-09-06T10:18:18.717Z,86.16
2022-09-06T10:19:17.702Z,86
2022-09-06T10:20:17.725Z,85.71
2022-09-06T10:21:17.712Z,85.56
2022-09-06T10:22:17.718Z,84.97
2022-09-06T10:24:35.440Z,84.09
2022-09-06T10:25:35.408Z,83.9
2022-09-06T10:26:35.403Z,84.19
2022-09-06T10:27:36.053Z,83.7
2022-09-06T10:28:35.400Z,83.26
2022-09-06T10:29:35.398Z,83.06
2022-09-06T10:30:35.438Z,82.38
2022-09-06T10:31:35.577Z,82.42
2022-09-06T10:32:35.404Z,82.71
2022-09-06T10:33:35.412Z,82.48
2022-09-06T10:34:35.425Z,82.67
2022-09-06T10:35:35.429Z,82.28
2022-09-06T10:36:35.420Z,82.09
2022-09-06T10:37:35.443Z,82.03
2022-09-06T10:38:35.421Z,81.84
2022-09-06T10:39:35.621Z,80.76
2022-09-06T10:40:39.106Z,80.9
2022-09-06T10:41:35.450Z,80.66
2022-09-06T10:42:35.438Z,80.23
2022-09-06T10:43:35.426Z,80.86
2022-09-06T10:44:35.442Z,80.57
2022-09-06T10:45:35.431Z,79.92
2022-09-06T10:46:35.585Z,79.33
2022-09-06T10:47:35.469Z,79.53
2022-09-06T10:48:35.443Z,80.44
2022-09-06T10:49:35.444Z,79.66
2022-09-06T10:50:35.447Z,78.82
2022-09-06T10:51:38.196Z,78.43
2022-09-06T10:52:35.462Z,78.72
2022-09-06T10:53:35.466Z,79.08
2022-09-06T10:54:35.452Z,79.53
2022-09-06T10:55:35.453Z,79.49
2022-09-06T10:56:35.464Z,79.04
2022-09-06T10:58:20.934Z,79.53
2022-09-06T10:59:46.219Z,79.98
2022-09-06T11:00:45.653Z,79.84
2022-09-06T11:01:45.930Z,79.74
2022-09-06T11:02:45.838Z,80.39
2022-09-06T11:03:56.649Z,80.43
2022-09-06T11:05:40.614Z,79.9
2022-09-06T11:05:55.445Z,79.98
2022-09-06T11:06:55.315Z,79.49
2022-09-06T11:09:05.626Z,79.2
2022-09-06T11:10:05.582Z,79.59
2022-09-06T11:11:07.113Z,79.59
2022-09-06T11:12:05.587Z,79.49
2022-09-06T11:13:05.450Z,79.59
2022-09-06T11:14:07.868Z,79.1
2022-09-06T11:15:05.597Z,78.61
2022-09-06T11:16:05.772Z,78.81
2022-09-06T11:17:05.594Z,79.25
2022-09-06T11:18:05.598Z,78.67
2022-09-06T11:19:05.429Z,78.57
2022-09-06T11:20:05.598Z,79.06
2022-09-06T11:21:05.674Z,79.64
2022-09-06T11:22:08.697Z,79.64
2022-09-06T11:23:05.600Z,79.06
2022-09-06T11:24:05.605Z,79.45
2022-09-06T11:25:05.602Z,79.64
2022-09-06T11:26:05.620Z,79.35
2022-09-06T11:27:05.610Z,79.25
2022-09-06T11:28:05.617Z,79.3
2022-09-06T11:29:05.649Z,79.06
2022-09-06T11:30:05.618Z,79.16
2022-09-06T11:31:05.768Z,78.32
2022-09-06T11:32:17.908Z,78.22
2022-09-06T11:33:17.501Z,79.59
2022-09-06T11:34:17.456Z,78.85
2022-09-06T11:35:17.622Z,77.09
2022-09-06T11:36:17.639Z,76.4
2022-09-06T11:37:17.626Z,76.56
2022-09-06T11:38:17.653Z,77.3
2022-09-06T11:39:17.674Z,77.5
2022-09-06T11:40:35.043Z,77.44
2022-09-06T11:41:31.486Z,76.6
2022-09-06T11:42:31.474Z,76.46
2022-09-06T11:43:31.433Z,76.37
2022-09-06T11:44:31.481Z,77.15
2022-09-06T11:45:31.487Z,77.77
2022-09-06T11:46:31.608Z,77.34
2022-09-06T11:47:31.313Z,77.34
2022-09-06T11:48:31.473Z,76.4
2022-09-06T11:49:31.492Z,76.99
2022-09-06T11:50:31.489Z,77.15
2022-09-06T11:51:34.359Z,77.15
2022-09-06T11:52:31.499Z,77.34
2022-09-06T11:53:31.601Z,76.89
2022-09-06T11:54:31.522Z,76.76
2022-09-06T11:55:31.493Z,76.46
2022-09-06T11:56:31.507Z,77.25
2022-09-06T11:57:31.498Z,77.25
2022-09-06T11:58:31.509Z,77.73
2022-09-06T11:59:31.506Z,77.34
2022-09-06T12:00:31.514Z,78.71
2022-09-06T12:01:31.528Z,77.83
2022-09-06T12:02:34.887Z,78.81
2022-09-06T12:04:31.343Z,78.67
2022-09-06T12:05:31.518Z,78.47
2022-09-06T12:06:31.384Z,78.38
2022-09-06T12:07:31.515Z,78.57
2022-09-06T12:08:31.590Z,78.77
2022-09-06T12:09:31.545Z,78.57
2022-09-06T12:10:31.520Z,78.47
2022-09-06T12:11:32.801Z,77.98
2022-09-06T12:12:31.531Z,78.18
2022-09-06T12:13:34.322Z,79.06
2022-09-06T12:14:31.553Z,78.67
2022-09-06T12:15:31.537Z,79
2022-09-06T12:16:31.646Z,78.75
2022-09-06T12:17:31.537Z,78.65
2022-09-06T12:18:31.677Z,78.75
2022-09-06T12:19:31.564Z,77.34
2022-09-06T12:20:31.538Z,77.83
2022-09-06T12:21:31.559Z,77.73
2022-09-06T12:22:31.547Z,77.54
2022-09-06T12:23:31.560Z,77.25
2022-09-06T12:24:31.550Z,78.32
2022-09-06T12:25:31.557Z,77.64
2022-09-06T12:26:31.570Z,78.18
2022-09-06T12:27:31.550Z,78.53
2022-09-06T12:28:31.699Z,79.47
2022-09-06T12:29:31.567Z,80
2022-09-06T12:30:31.554Z,79.25
2022-09-06T12:31:31.743Z,79.64
2022-09-06T12:32:36.925Z,79.84
2022-09-06T12:33:31.575Z,79.94
2022-09-06T12:34:31.569Z,79.64
2022-09-06T12:36:02.319Z,78.57
2022-09-06T12:36:31.591Z,78.57
2022-09-06T12:37:31.586Z,79.64
2022-09-06T12:38:31.745Z,79.64
2022-09-06T12:39:31.733Z,79.25
2022-09-06T12:40:34.472Z,78.92
2022-09-06T12:41:31.599Z,79.37
2022-09-06T12:42:31.586Z,79.47
2022-09-06T12:43:31.595Z,79.66
2022-09-06T12:44:31.602Z,79.76
2022-09-06T12:45:31.587Z,80.44
2022-09-06T12:46:31.753Z,79.86
2022-09-06T12:47:31.598Z,80.29
2022-09-06T12:48:31.902Z,80.49
2022-09-06T12:49:31.598Z,79.8
2022-09-06T12:50:31.627Z,80.04
2022-09-06T12:51:33.226Z,78.71
2022-09-06T12:52:31.607Z,78.57
2022-09-06T12:53:31.601Z,78.42
2022-09-06T12:54:31.620Z,77.83
2022-09-06T12:55:31.608Z,77.79
2022-09-06T12:56:31.630Z,79.25
2022-09-06T12:57:31.613Z,78.86
2022-09-06T12:58:31.937Z,79.06
2022-09-06T12:59:31.618Z,78.47
2022-09-06T13:00:31.619Z,78.47
2022-09-06T13:01:31.851Z,78.52
2022-09-06T13:02:31.955Z,77.73
2022-09-06T13:03:31.633Z,76.86
2022-09-06T13:04:31.628Z,76.46
2022-09-06T13:05:31.469Z,76.5
2022-09-06T13:06:31.738Z,77.54
2022-09-06T13:07:31.638Z,77.58
2022-09-06T13:08:31.745Z,76.6
2022-09-06T13:09:31.666Z,76.7
2022-09-06T13:10:31.638Z,77.19
2022-09-06T13:11:31.511Z,77.58
2022-09-06T13:12:31.639Z,77.09